createdAt,value
2018-09-04T00:00:01.664Z,16.55
2018-09-04T00:05:02.146Z,16.52
2018-09-04T00:10:01.563Z,16.56
2018-09-04T00:15:01.912Z,16.6
2018-09-04T00:20:01.175Z,16.59
2018-09-04T00:25:01.575Z,16.57
2018-09-04T00:30:01.808Z,16.47
2018-09-04T00:35:02.142Z,16.4
2018-09-04T00:40:01.590Z,16.32
2018-09-04T00:45:01.891Z,16.56
2018-09-04T00:50:01.393Z,16.6
2018-09-04T00:55:01.709Z,16.35
2018-09-04T01:00:02.058Z,16.37
2018-09-04T01:05:01.499Z,16.42
2018-09-04T01:10:02.041Z,16.47
2018-09-04T01:15:01.347Z,16.47
2018-09-04T01:20:01.946Z,16.39
2018-09-04T01:25:01.547Z,16.46
2018-09-04T01:30:01.463Z,16.31
2018-09-04T01:35:01.830Z,16.31
2018-09-04T01:40:01.228Z,16.33
2018-09-04T01:45:01.459Z,16.42
2018-09-04T01:50:01.727Z,16.04
2018-09-04T01:55:01.981Z,16.1
2018-09-04T02:00:01.254Z,16
2018-09-04T02:05:01.573Z,15.86
2018-09-04T02:10:01.977Z,15.82
2018-09-04T02:15:01.735Z,15.88
2018-09-04T02:20:02.161Z,15.84
2018-09-04T02:25:01.638Z,15.73
2018-09-04T02:30:02.071Z,15.63
2018-09-04T02:35:01.547Z,15.65
2018-09-04T02:40:01.585Z,15.49
2018-09-04T02:45:01.827Z,15.44
2018-09-04T02:50:02.194Z,15.36
2018-09-04T02:55:01.577Z,15.54
2018-09-04T03:00:01.824Z,15.65
2018-09-04T03:05:01.102Z,15.65
2018-09-04T03:10:01.415Z,15.7
2018-09-04T03:15:01.703Z,15.7
2018-09-04T03:20:02.137Z,15.68
2018-09-04T03:25:01.533Z,15.7
2018-09-04T03:30:01.808Z,15.67
2018-09-04T03:35:01.095Z,15.51
2018-09-04T03:40:01.376Z,15.36
2018-09-04T03:45:01.670Z,15.3
2018-09-04T03:50:02.019Z,15.26
2018-09-04T03:55:01.473Z,15.21
2018-09-04T04:00:01.732Z,15.07
2018-09-04T04:05:02.121Z,15
2018-09-04T04:10:01.542Z,14.97
2018-09-04T04:15:01.784Z,15.01
2018-09-04T04:20:01.090Z,15.07
2018-09-04T04:25:01.404Z,15.07
2018-09-04T04:30:01.706Z,15.04
2018-09-04T04:35:02.081Z,15.06
2018-09-04T04:40:01.675Z,15.04
2018-09-04T04:45:01.265Z,15.01
2018-09-04T04:50:01.555Z,14.94
2018-09-04T04:55:02.015Z,15.01
2018-09-04T05:00:01.259Z,15.01
2018-09-04T05:05:01.698Z,14.97
2018-09-04T05:10:02.050Z,15.04
2018-09-04T05:15:01.298Z,15.13
2018-09-04T05:20:01.710Z,15.36
2018-09-04T05:25:01.097Z,15.3
2018-09-04T05:30:01.340Z,15.24
2018-09-04T05:35:01.706Z,15.27
2018-09-04T05:40:02.037Z,15.41
2018-09-04T05:45:01.298Z,15.49
2018-09-04T05:50:01.696Z,15.51
2018-09-04T05:55:01.100Z,15.53
2018-09-04T06:00:01.438Z,15.85
2018-09-04T06:05:01.852Z,15.99
2018-09-04T06:10:01.245Z,16.15
2018-09-04T06:15:01.552Z,16.49
2018-09-04T06:20:01.958Z,16.52
2018-09-04T06:25:01.598Z,16.44
2018-09-04T06:30:01.841Z,16.89
2018-09-04T06:35:01.140Z,17.1
2018-09-04T06:40:01.425Z,17.31
2018-09-04T06:45:01.696Z,17.22
2018-09-04T06:50:01.978Z,17.55
2018-09-04T06:55:01.342Z,17.69
2018-09-04T07:00:01.689Z,17.81
2018-09-04T07:05:01.105Z,18.04
2018-09-04T07:10:01.359Z,18.13
2018-09-04T07:15:01.656Z,18.4
2018-09-04T07:20:01.116Z,18.49
2018-09-04T07:25:01.398Z,18.7
2018-09-04T07:30:01.648Z,18.62
2018-09-04T07:35:01.988Z,18.58
2018-09-04T07:40:01.410Z,18.54
2018-09-04T07:45:01.690Z,18.83
2018-09-04T07:50:01.968Z,19
2018-09-04T07:55:01.326Z,19.14
2018-09-04T08:00:01.661Z,19.33
2018-09-04T08:05:02.029Z,19.68
2018-09-04T08:10:01.473Z,20.12
2018-09-04T08:15:02.011Z,20.29
2018-09-04T08:20:01.264Z,20.86
2018-09-04T08:25:01.578Z,21.36
2018-09-04T08:30:01.825Z,21.5
2018-09-04T08:35:01.134Z,21.48
2018-09-04T08:40:01.512Z,21.93
2018-09-04T08:45:01.113Z,22.19
2018-09-04T08:50:01.359Z,21.97
2018-09-04T08:55:01.744Z,22.09
2018-09-04T09:00:02.022Z,22.29
2018-09-04T09:05:01.277Z,22.1
2018-09-04T09:10:01.637Z,21.57
2018-09-04T09:15:01.175Z,21.82
2018-09-04T09:20:01.416Z,21.48
2018-09-04T09:25:01.782Z,21.45
2018-09-04T09:30:02.092Z,21.36
2018-09-04T09:35:01.353Z,21.7
2018-09-04T09:40:01.695Z,22.02
2018-09-04T09:45:01.941Z,22.38
2018-09-04T09:50:01.211Z,22.58
2018-09-04T09:55:01.568Z,22.79
2018-09-04T10:00:01.903Z,22.51
2018-09-04T10:05:01.255Z,22.23
2018-09-04T10:10:01.700Z,21.69
2018-09-04T10:15:02.066Z,21.94
2018-09-04T10:20:01.349Z,22.41
2018-09-04T10:25:01.244Z,22.21
2018-09-04T10:30:01.564Z,22.09
2018-09-04T10:35:01.944Z,22.02
2018-09-04T10:40:01.348Z,22.19
2018-09-04T10:45:01.619Z,22.4
2018-09-04T10:50:02.003Z,22.77
2018-09-04T10:55:01.384Z,23.02
2018-09-04T11:00:01.636Z,22.94
2018-09-04T11:05:02.051Z,22.97
2018-09-04T11:10:01.718Z,23.06
2018-09-04T11:15:02.103Z,23.13
2018-09-04T11:20:01.354Z,23.41
2018-09-04T11:25:01.731Z,23.7
2018-09-04T11:30:01.962Z,23.85
2018-09-04T11:35:01.286Z,23.55
2018-09-04T11:40:01.584Z,23.59
2018-09-04T11:45:01.838Z,23.53
2018-09-04T11:50:01.125Z,23.94
2018-09-04T11:55:01.383Z,24.38
2018-09-04T12:00:01.641Z,24.56
2018-09-04T12:05:02.026Z,24.79
2018-09-04T12:10:01.442Z,24.73
2018-09-04T12:15:01.726Z,24.45
2018-09-04T12:20:02.029Z,24.63
2018-09-04T12:25:01.492Z,24.74
2018-09-04T12:30:01.738Z,24.28
2018-09-04T12:35:02.034Z,23.92
2018-09-04T12:40:01.298Z,23.71
2018-09-04T12:45:01.587Z,23.7
2018-09-04T12:50:01.861Z,23.77
2018-09-04T12:55:01.206Z,23.77
2018-09-04T13:00:01.484Z,23.73
2018-09-04T13:05:01.867Z,23.71
2018-09-04T13:10:01.241Z,23.9
2018-09-04T13:15:01.538Z,23.99
2018-09-04T13:20:02.054Z,23.94
2018-09-04T13:25:01.933Z,23.9
2018-09-04T13:30:01.184Z,24.04
2018-09-04T13:35:01.476Z,24.18
2018-09-04T13:40:01.847Z,24.46
2018-09-04T13:45:01.101Z,24.62
2018-09-04T13:50:01.360Z,24.59
2018-09-04T13:55:01.688Z,24.69
2018-09-04T14:00:01.940Z,25.1
2018-09-04T14:05:01.195Z,24.95
2018-09-04T14:10:01.441Z,24.87
2018-09-04T14:15:01.668Z,24.64
2018-09-04T14:20:02.090Z,24.61
2018-09-04T14:25:01.539Z,24.69
2018-09-04T14:30:16.561Z,24.48
2018-09-04T14:35:01.103Z,24.56
2018-09-04T14:40:01.393Z,24.5
2018-09-04T14:45:01.757Z,24.55
2018-09-04T14:50:01.223Z,24.63
2018-09-04T14:55:01.490Z,24.56
2018-09-04T15:00:01.753Z,24.69
2018-09-04T15:05:02.055Z,24.75
2018-09-04T15:10:01.516Z,24.69
2018-09-04T15:15:01.737Z,24.75
2018-09-04T15:20:02.034Z,24.8
2018-09-04T15:25:01.424Z,24.74
2018-09-04T15:30:01.719Z,24.65
2018-09-04T15:35:02.056Z,24.47
2018-09-04T15:40:01.508Z,24.15
2018-09-04T15:45:01.730Z,24.11
2018-09-04T15:50:02.015Z,24.13
2018-09-04T15:55:01.400Z,24.3
2018-09-04T16:00:01.648Z,24.24
2018-09-04T16:05:01.924Z,24.32
2018-09-04T16:10:01.480Z,24.18
2018-09-04T16:15:01.574Z,24.1
2018-09-04T16:20:01.846Z,24.1
2018-09-04T16:25:01.080Z,24.1
2018-09-04T16:30:01.370Z,24.02
2018-09-04T16:35:01.797Z,23.95
2018-09-04T16:40:01.440Z,23.68
2018-09-04T16:45:01.712Z,23.65
2018-09-04T16:50:02.040Z,23.65
2018-09-04T16:55:01.426Z,23.58
2018-09-04T17:00:01.676Z,23.47
2018-09-04T17:05:02.071Z,23.51
2018-09-04T17:10:01.644Z,23.45
2018-09-04T17:15:01.946Z,23.3
2018-09-04T17:20:01.232Z,23.26
2018-09-04T17:25:01.575Z,23.21
2018-09-04T17:30:01.793Z,22.73
2018-09-04T17:35:02.168Z,22.42
2018-09-04T17:40:01.574Z,22.19
2018-09-04T17:45:01.861Z,22.05
2018-09-04T17:50:01.149Z,21.93
2018-09-04T17:55:01.391Z,21.83
2018-09-04T18:00:01.662Z,21.74
2018-09-04T18:05:02.004Z,21.67
2018-09-04T18:10:01.253Z,21.59
2018-09-04T18:15:01.495Z,21.5
2018-09-04T18:20:01.841Z,21.33
2018-09-04T18:25:01.265Z,21.19
2018-09-04T18:30:01.555Z,20.98
2018-09-04T18:35:01.901Z,20.74
2018-09-04T18:40:01.330Z,20.55
2018-09-04T18:45:01.593Z,20.32
2018-09-04T18:50:01.879Z,20.15
2018-09-04T18:55:01.229Z,19.84
2018-09-04T19:00:01.580Z,19.73
2018-09-04T19:05:01.939Z,19.6
2018-09-04T19:10:01.291Z,19.41
2018-09-04T19:15:01.584Z,19.26
2018-09-04T19:20:01.987Z,19.18
2018-09-04T19:25:01.384Z,19.06
2018-09-04T19:30:01.663Z,18.98
2018-09-04T19:35:01.993Z,18.92
2018-09-04T19:40:01.512Z,18.93
2018-09-04T19:45:01.747Z,18.83
2018-09-04T19:50:02.143Z,18.78
2018-09-04T19:55:01.645Z,18.77
2018-09-04T20:00:01.873Z,18.73
2018-09-04T20:05:01.129Z,18.72
2018-09-04T20:10:01.396Z,18.73
2018-09-04T20:15:02.102Z,18.77
2018-09-04T20:20:01.363Z,18.77
2018-09-04T20:25:01.722Z,18.76
2018-09-04T20:30:02.057Z,18.76
2018-09-04T20:35:01.334Z,18.73
2018-09-04T20:40:01.657Z,18.69
2018-09-04T20:45:01.891Z,18.66
2018-09-04T20:50:01.132Z,18.61
2018-09-04T20:55:01.435Z,18.59
2018-09-04T21:00:01.728Z,18.54
2018-09-04T21:05:01.188Z,18.5
2018-09-04T21:10:01.456Z,18.48
2018-09-04T21:15:01.704Z,18.44
2018-09-04T21:20:02.053Z,18.44
2018-09-04T21:25:01.478Z,18.38
2018-09-04T21:30:01.792Z,18.39
2018-09-04T21:35:01.136Z,18.36
2018-09-04T21:40:01.451Z,18.34
2018-09-04T21:45:01.730Z,18.3
2018-09-04T21:50:02.045Z,18.29
2018-09-04T21:55:01.489Z,18.28
2018-09-04T22:00:01.833Z,18.27
2018-09-04T22:05:01.146Z,18.27
2018-09-04T22:10:01.484Z,18.25
2018-09-04T22:15:01.761Z,18.23
2018-09-04T22:20:02.005Z,18.21
2018-09-04T22:25:01.234Z,18.22
2018-09-04T22:30:01.534Z,18.21
2018-09-04T22:35:01.894Z,18.2
2018-09-04T22:40:01.303Z,18.18
2018-09-04T22:45:01.551Z,18.11
2018-09-04T22:50:01.905Z,18.08
2018-09-04T22:55:01.364Z,18.05
2018-09-04T23:00:01.720Z,17.98
2018-09-04T23:05:02.030Z,17.95
2018-09-04T23:10:01.549Z,17.91
2018-09-04T23:15:01.823Z,17.91
2018-09-04T23:20:01.105Z,17.87
2018-09-04T23:25:01.392Z,17.85
2018-09-04T23:30:01.674Z,17.84
2018-09-04T23:35:02.033Z,17.81
2018-09-04T23:40:01.474Z,17.79
2018-09-04T23:45:01.788Z,17.78
2018-09-04T23:50:02.175Z,17.83
2018-09-04T23:55:01.650Z,17.81
